AFR9441 LFKB-LFPG
Flight info
| Callsign | AFR9441 |
|---|---|
| Flight time | N/A |
| Altitude | 36000 |
| Route | AKUTI UM616 PIGOS DCT BARSO DCT OKTET DCT GIPNO DCT LOGNI DCT MOKIP DCT ARFOZ DCT TINIL |
| Aircraft | A320/M-SDE2E3FGIJ1RWY/HB1 |
Departure
| Time | 2026-04-24 22:50 |
|---|---|
| Airport | Bastia-Poretta International airport (LFKB) |
Arrival
| Time | N/A |
|---|---|
| Airport | Charles de Gaulle International Airport (LFPG) |
| Time | Latitude | Longitude | Altitude | Speed | Heading |
|---|---|---|---|---|---|
| 2026-04-24 22:28 | 42.54727 | 9.48204 | 35 ft | 0 kts | 255° |
| 2026-04-24 22:42 | 42.54729 | 9.48211 | 35 ft | 4 kts | 254° |
| 2026-04-24 22:42 | 42.54737 | 9.48245 | 34 ft | 4 kts | 254° |
| 2026-04-24 22:42 | 42.54742 | 9.48280 | 35 ft | 4 kts | 274° |
| 2026-04-24 22:42 | 42.54735 | 9.48312 | 31 ft | 4 kts | 316° |
| 2026-04-24 22:43 | 42.54723 | 9.48323 | 32 ft | 1 kts | 343° |
| 2026-04-24 22:43 | 42.54721 | 9.48324 | 32 ft | 0 kts | 343° |
| 2026-04-24 22:45 | 42.54723 | 9.48323 | 32 ft | 2 kts | 343° |
| 2026-04-24 22:45 | 42.54757 | 9.48309 | 33 ft | 8 kts | 343° |
| 2026-04-24 22:46 | 42.54830 | 9.48278 | 35 ft | 14 kts | 343° |
| 2026-04-24 22:46 | 42.54932 | 9.48237 | 34 ft | 15 kts | 349° |
| 2026-04-24 22:46 | 42.55028 | 9.48217 | 33 ft | 13 kts | 344° |
| 2026-04-24 22:46 | 42.55111 | 9.48183 | 35 ft | 12 kts | 342° |
| 2026-04-24 22:47 | 42.55184 | 9.48152 | 35 ft | 10 kts | 342° |
| 2026-04-24 22:47 | 42.55267 | 9.48117 | 35 ft | 15 kts | 343° |
| 2026-04-24 22:47 | 42.55387 | 9.48068 | 35 ft | 21 kts | 342° |
| 2026-04-24 22:47 | 42.55530 | 9.48007 | 34 ft | 23 kts | 342° |
| 2026-04-24 22:48 | 42.55694 | 9.47938 | 30 ft | 26 kts | 342° |
| 2026-04-24 22:48 | 42.55873 | 9.47863 | 27 ft | 26 kts | 347° |
| 2026-04-24 22:48 | 42.55962 | 9.47999 | 27 ft | 13 kts | 71° |
| 2026-04-24 22:48 | 42.56036 | 9.48050 | 25 ft | 16 kts | 346° |
| 2026-04-24 22:49 | 42.56161 | 9.47997 | 23 ft | 22 kts | 342° |
| 2026-04-24 22:49 | 42.56279 | 9.47893 | 22 ft | 12 kts | 316° |
| 2026-04-24 22:49 | 42.56304 | 9.47932 | 22 ft | 8 kts | 129° |
| 2026-04-24 22:49 | 42.56258 | 9.47958 | 22 ft | 8 kts | 162° |
| 2026-04-24 22:50 | 42.56043 | 9.48048 | 25 ft | 69 kts | 162° |
| 2026-04-24 22:50 | 42.55369 | 9.48329 | 36 ft | 130 kts | 163° |
| 2026-04-24 22:50 | 42.54349 | 9.48743 | 143 ft | 169 kts | 163° |
| 2026-04-24 22:50 | 42.53216 | 9.49234 | 728 ft | 173 kts | 163° |
| 2026-04-24 22:51 | 42.52069 | 9.49694 | 1458 ft | 171 kts | 163° |
| 2026-04-24 22:51 | 42.51061 | 9.50475 | 2160 ft | 168 kts | 127° |
| 2026-04-24 22:51 | 42.50627 | 9.51982 | 2532 ft | 191 kts | 84° |
| 2026-04-24 22:51 | 42.51155 | 9.53733 | 3220 ft | 216 kts | 49° |
| 2026-04-24 22:52 | 42.52230 | 9.55313 | 3787 ft | 240 kts | 45° |
| 2026-04-24 22:52 | 42.53463 | 9.56951 | 4473 ft | 254 kts | 44° |
| 2026-04-24 22:52 | 42.54965 | 9.58158 | 5379 ft | 263 kts | 15° |
| 2026-04-24 22:52 | 42.56830 | 9.58000 | 6330 ft | 276 kts | 342° |
| 2026-04-24 22:53 | 42.58414 | 9.56438 | 7218 ft | 289 kts | 315° |
| 2026-04-24 22:53 | 42.59616 | 9.54229 | 8168 ft | 292 kts | 307° |
| 2026-04-24 22:53 | 42.60736 | 9.51918 | 9119 ft | 293 kts | 307° |
| 2026-04-24 22:53 | 42.61858 | 9.49600 | 10079 ft | 294 kts | 307° |
| 2026-04-24 22:54 | 42.63015 | 9.47230 | 10538 ft | 312 kts | 309° |
| 2026-04-24 22:54 | 42.64419 | 9.44852 | 10874 ft | 330 kts | 315° |
| 2026-04-24 22:54 | 42.66005 | 9.42559 | 11536 ft | 336 kts | 317° |
| 2026-04-24 22:54 | 42.67666 | 9.40305 | 12314 ft | 339 kts | 319° |
| 2026-04-24 22:55 | 42.69358 | 9.38036 | 13076 ft | 342 kts | 319° |
| 2026-04-24 22:55 | 42.71026 | 9.35775 | 13823 ft | 346 kts | 319° |
| 2026-04-24 22:55 | 42.72879 | 9.33698 | 14482 ft | 346 kts | 329° |
| 2026-04-24 22:55 | 42.74973 | 9.32057 | 15139 ft | 348 kts | 335° |
| 2026-04-24 22:56 | 42.77105 | 9.30499 | 15797 ft | 351 kts | 334° |
| 2026-04-24 22:56 | 42.79266 | 9.28910 | 16457 ft | 354 kts | 334° |
| 2026-04-24 22:56 | 42.81443 | 9.27309 | 17118 ft | 358 kts | 334° |
| 2026-04-24 22:56 | 42.83646 | 9.25686 | 17768 ft | 361 kts | 334° |
| 2026-04-24 22:57 | 42.85865 | 9.24047 | 18395 ft | 365 kts | 333° |
| 2026-04-24 22:57 | 42.88105 | 9.22387 | 18950 ft | 368 kts | 333° |
| 2026-04-24 22:57 | 42.90362 | 9.20704 | 19520 ft | 371 kts | 332° |
| 2026-04-24 22:57 | 42.92603 | 9.18947 | 20096 ft | 373 kts | 331° |
| 2026-04-24 22:58 | 42.94839 | 9.17117 | 20666 ft | 376 kts | 330° |
| 2026-04-24 22:58 | 42.97073 | 9.15252 | 21215 ft | 378 kts | 330° |
| 2026-04-24 22:58 | 42.99321 | 9.13367 | 21788 ft | 380 kts | 330° |
| 2026-04-24 22:58 | 43.01589 | 9.11477 | 22326 ft | 382 kts | 330° |
| 2026-04-24 22:59 | 43.03869 | 9.09587 | 22865 ft | 384 kts | 330° |
| 2026-04-24 22:59 | 43.06167 | 9.07692 | 23369 ft | 387 kts | 330° |
| 2026-04-24 22:59 | 43.10811 | 9.03877 | 24280 ft | 392 kts | 330° |
| 2026-04-24 23:00 | 43.13157 | 9.01949 | 24693 ft | 394 kts | 330° |
| 2026-04-24 23:00 | 43.15510 | 9.00008 | 25097 ft | 397 kts | 330° |
| 2026-04-24 23:00 | 43.17884 | 8.98047 | 25477 ft | 400 kts | 330° |
| 2026-04-24 23:00 | 43.20158 | 8.95824 | 25897 ft | 403 kts | 320° |
| 2026-04-24 23:01 | 43.22107 | 8.93047 | 26286 ft | 407 kts | 309° |
| 2026-04-24 23:01 | 43.23659 | 8.89794 | 26684 ft | 411 kts | 299° |
| 2026-04-24 23:01 | 43.24777 | 8.86164 | 27052 ft | 415 kts | 291° |
| 2026-04-24 23:01 | 43.25734 | 8.82461 | 27428 ft | 418 kts | 291° |
| 2026-04-24 23:02 | 43.26713 | 8.78664 | 27811 ft | 420 kts | 291° |
| 2026-04-24 23:02 | 43.27673 | 8.74937 | 28183 ft | 422 kts | 291° |
| 2026-04-24 23:02 | 43.28654 | 8.71129 | 28538 ft | 424 kts | 291° |
| 2026-04-24 23:02 | 43.29638 | 8.67295 | 28874 ft | 428 kts | 291° |
| 2026-04-24 23:03 | 43.30628 | 8.63432 | 29204 ft | 430 kts | 291° |
| 2026-04-24 23:03 | 43.31624 | 8.59540 | 29565 ft | 433 kts | 291° |
| 2026-04-24 23:03 | 43.32625 | 8.55622 | 29891 ft | 435 kts | 291° |
| 2026-04-24 23:03 | 43.33629 | 8.51697 | 30218 ft | 438 kts | 291° |
| 2026-04-24 23:04 | 43.34645 | 8.47740 | 30493 ft | 440 kts | 291° |
| 2026-04-24 23:04 | 43.35665 | 8.43764 | 30761 ft | 442 kts | 291° |
| 2026-04-24 23:04 | 43.36685 | 8.39777 | 31019 ft | 444 kts | 291° |
| 2026-04-24 23:04 | 43.37709 | 8.35759 | 31271 ft | 446 kts | 291° |
| 2026-04-24 23:05 | 43.38734 | 8.31721 | 31495 ft | 449 kts | 290° |
| 2026-04-24 23:05 | 43.39761 | 8.27670 | 31784 ft | 450 kts | 290° |
| 2026-04-24 23:05 | 43.40786 | 8.23610 | 32132 ft | 449 kts | 290° |
| 2026-04-24 23:05 | 43.41809 | 8.19548 | 32493 ft | 449 kts | 290° |
| 2026-04-24 23:06 | 43.42827 | 8.15504 | 32841 ft | 448 kts | 290° |
| 2026-04-24 23:06 | 43.43845 | 8.11456 | 33207 ft | 448 kts | 290° |
| 2026-04-24 23:06 | 43.44860 | 8.07409 | 33549 ft | 447 kts | 290° |
| 2026-04-24 23:06 | 43.45873 | 8.03359 | 33909 ft | 447 kts | 290° |
| 2026-04-24 23:07 | 43.46882 | 7.99314 | 34258 ft | 446 kts | 290° |
| 2026-04-24 23:07 | 43.47888 | 7.95285 | 34559 ft | 445 kts | 290° |
| 2026-04-24 23:07 | 43.48893 | 7.91259 | 34874 ft | 444 kts | 290° |
| 2026-04-24 23:07 | 43.49894 | 7.87243 | 35174 ft | 443 kts | 290° |
| 2026-04-24 23:08 | 43.50895 | 7.83219 | 35451 ft | 443 kts | 290° |
| 2026-04-24 23:08 | 43.51892 | 7.79217 | 35716 ft | 443 kts | 290° |
| 2026-04-24 23:08 | 43.52888 | 7.75202 | 35969 ft | 443 kts | 290° |
| 2026-04-24 23:08 | 43.53881 | 7.71177 | 36107 ft | 443 kts | 290° |
| 2026-04-24 23:09 | 43.54866 | 7.67179 | 36133 ft | 439 kts | 290° |
| 2026-04-24 23:09 | 43.56822 | 7.59231 | 36141 ft | 437 kts | 290° |
| 2026-04-24 23:10 | 43.58763 | 7.51335 | 36143 ft | 437 kts | 290° |
| 2026-04-24 23:10 | 43.60751 | 7.43410 | 36108 ft | 436 kts | 295° |
| 2026-04-24 23:11 | 43.63985 | 7.36410 | 36074 ft | 433 kts | 314° |
| 2026-04-24 23:11 | 43.68659 | 7.31266 | 36073 ft | 430 kts | 328° |
| 2026-04-24 23:12 | 43.73664 | 7.26698 | 36069 ft | 431 kts | 327° |
| 2026-04-24 23:12 | 43.78651 | 7.22108 | 36075 ft | 431 kts | 327° |
| 2026-04-24 23:13 | 43.83648 | 7.17498 | 36086 ft | 431 kts | 327° |
| 2026-04-24 23:13 | 43.88641 | 7.12901 | 36094 ft | 431 kts | 327° |
| 2026-04-24 23:14 | 43.93642 | 7.08289 | 36117 ft | 432 kts | 327° |
| 2026-04-24 23:14 | 43.98647 | 7.03666 | 36130 ft | 432 kts | 327° |
| 2026-04-24 23:15 | 44.03640 | 6.99024 | 36137 ft | 432 kts | 327° |
| 2026-04-24 23:15 | 44.08645 | 6.94366 | 36144 ft | 432 kts | 327° |
| 2026-04-24 23:16 | 44.13636 | 6.89714 | 36143 ft | 432 kts | 328° |
| 2026-04-24 23:16 | 44.18643 | 6.85045 | 36136 ft | 432 kts | 327° |
| 2026-04-24 23:17 | 44.23606 | 6.80404 | 36140 ft | 433 kts | 327° |
| 2026-04-24 23:17 | 44.28604 | 6.75722 | 36133 ft | 433 kts | 327° |
| 2026-04-24 23:18 | 44.33595 | 6.71024 | 36134 ft | 433 kts | 327° |
| 2026-04-24 23:18 | 44.38593 | 6.66308 | 36144 ft | 433 kts | 327° |
| 2026-04-24 23:19 | 44.43591 | 6.61597 | 36142 ft | 433 kts | 327° |
| 2026-04-24 23:19 | 44.48592 | 6.56875 | 36137 ft | 434 kts | 326° |
| 2026-04-24 23:20 | 44.53597 | 6.52133 | 36146 ft | 434 kts | 327° |
| 2026-04-24 23:20 | 44.57796 | 6.48162 | 36142 ft | 435 kts | 327° |
| 2026-04-24 23:21 | 44.62778 | 6.43429 | 36144 ft | 435 kts | 326° |
| 2026-04-24 23:21 | 44.67784 | 6.38640 | 36149 ft | 435 kts | 326° |
| 2026-04-24 23:22 | 44.72795 | 6.33847 | 36153 ft | 435 kts | 326° |
| 2026-04-24 23:22 | 44.77803 | 6.29068 | 36151 ft | 436 kts | 326° |
| 2026-04-24 23:23 | 44.82819 | 6.24272 | 36158 ft | 436 kts | 326° |
| 2026-04-24 23:23 | 44.87831 | 6.19456 | 35905 ft | 436 kts | 326° |
| 2026-04-24 23:23 | 44.90343 | 6.17044 | 36183 ft | 437 kts | 326° |
| 2026-04-24 23:24 | 44.92842 | 6.14638 | 36168 ft | 437 kts | 326° |
| 2026-04-24 23:24 | 44.97868 | 6.09784 | 36177 ft | 436 kts | 326° |
| 2026-04-24 23:25 | 45.02842 | 6.04971 | 36173 ft | 436 kts | 326° |
| 2026-04-24 23:25 | 45.07835 | 6.00140 | 36173 ft | 436 kts | 326° |
| 2026-04-24 23:26 | 45.12887 | 5.95232 | 36175 ft | 437 kts | 325° |
| 2026-04-24 23:26 | 45.17839 | 5.90401 | 36171 ft | 436 kts | 325° |
| 2026-04-24 23:27 | 45.22895 | 5.85472 | 36173 ft | 436 kts | 325° |
| 2026-04-24 23:27 | 45.27853 | 5.80631 | 36168 ft | 436 kts | 325° |
| 2026-04-24 23:28 | 45.32844 | 5.75752 | 36173 ft | 436 kts | 325° |
| 2026-04-24 23:28 | 45.37844 | 5.70842 | 36179 ft | 436 kts | 325° |
| 2026-04-24 23:29 | 45.42827 | 5.65937 | 36182 ft | 435 kts | 324° |
| 2026-04-24 23:29 | 45.47804 | 5.61030 | 36176 ft | 435 kts | 325° |
| 2026-04-24 23:30 | 45.52783 | 5.56107 | 36169 ft | 435 kts | 325° |
| 2026-04-24 23:30 | 45.57969 | 5.51667 | 36171 ft | 436 kts | 336° |
| 2026-04-24 23:31 | 45.63515 | 5.48179 | 36165 ft | 436 kts | 335° |
| 2026-04-24 23:31 | 45.69068 | 5.44663 | 36163 ft | 436 kts | 335° |
| 2026-04-24 23:32 | 45.74608 | 5.41149 | 36174 ft | 436 kts | 335° |
| 2026-04-24 23:32 | 45.80102 | 5.37655 | 36177 ft | 435 kts | 335° |
| 2026-04-24 23:33 | 45.85690 | 5.34112 | 36183 ft | 435 kts | 335° |
| 2026-04-24 23:33 | 45.91224 | 5.30579 | 36178 ft | 436 kts | 335° |
| 2026-04-24 23:34 | 45.96762 | 5.27035 | 36169 ft | 436 kts | 335° |
| 2026-04-24 23:34 | 46.02299 | 5.23496 | 36169 ft | 436 kts | 335° |
| 2026-04-24 23:35 | 46.07836 | 5.19941 | 36166 ft | 436 kts | 335° |
| 2026-04-24 23:35 | 46.13377 | 5.16373 | 36168 ft | 436 kts | 334° |
| 2026-04-24 23:36 | 46.18916 | 5.12789 | 36176 ft | 436 kts | 334° |
| 2026-04-24 23:36 | 46.24615 | 5.09837 | 36172 ft | 438 kts | 348° |
| 2026-04-24 23:37 | 46.30704 | 5.09323 | 36172 ft | 440 kts | 359° |
| 2026-04-24 23:37 | 46.39881 | 5.09366 | 36163 ft | 440 kts | 358° |
| 2026-04-24 23:38 | 46.46016 | 5.09381 | 36175 ft | 440 kts | 358° |
| 2026-04-24 23:38 | 46.52140 | 5.09404 | 36164 ft | 441 kts | 358° |
| 2026-04-24 23:39 | 46.58275 | 5.09420 | 36160 ft | 441 kts | 358° |
| 2026-04-24 23:39 | 46.64414 | 5.09448 | 36159 ft | 441 kts | 358° |
| 2026-04-24 23:40 | 46.70561 | 5.09484 | 36161 ft | 441 kts | 358° |
| 2026-04-24 23:40 | 46.76704 | 5.09503 | 36161 ft | 441 kts | 358° |
| 2026-04-24 23:41 | 46.82839 | 5.09527 | 36171 ft | 441 kts | 358° |
| 2026-04-24 23:41 | 46.88940 | 5.09547 | 36166 ft | 442 kts | 2° |
| 2026-04-24 23:42 | 46.95104 | 5.09583 | 36164 ft | 444 kts | 2° |
| 2026-04-24 23:42 | 47.01282 | 5.09612 | 36164 ft | 445 kts | 2° |
| 2026-04-24 23:43 | 47.07488 | 5.09642 | 36163 ft | 446 kts | 2° |
| 2026-04-24 23:43 | 47.13700 | 5.09669 | 36213 ft | 447 kts | 2° |
| 2026-04-24 23:44 | 47.19915 | 5.09698 | 36228 ft | 447 kts | 2° |
| 2026-04-24 23:44 | 47.26132 | 5.09733 | 36231 ft | 448 kts | 2° |
| 2026-04-24 23:45 | 47.32379 | 5.09753 | 36230 ft | 448 kts | 2° |
| 2026-04-24 23:45 | 47.38628 | 5.09771 | 36213 ft | 450 kts | 2° |
| 2026-04-24 23:46 | 47.44909 | 5.09796 | 36194 ft | 453 kts | 2° |
| 2026-04-24 23:46 | 47.51223 | 5.09831 | 36171 ft | 454 kts | 2° |
| 2026-04-24 23:47 | 47.57527 | 5.09068 | 36164 ft | 460 kts | 345° |
| 2026-04-24 23:47 | 47.60451 | 5.07340 | 36156 ft | 462 kts | 332° |
| 2026-04-24 23:47 | 47.63139 | 5.04590 | 36151 ft | 464 kts | 320° |
| 2026-04-24 23:48 | 47.68058 | 4.98381 | 36160 ft | 465 kts | 320° |
| 2026-04-24 23:48 | 47.72953 | 4.92206 | 36152 ft | 465 kts | 320° |
| 2026-04-24 23:49 | 47.77883 | 4.85977 | 36161 ft | 465 kts | 320° |
| 2026-04-24 23:49 | 47.82799 | 4.79741 | 36160 ft | 465 kts | 320° |
| 2026-04-24 23:50 | 47.87772 | 4.73430 | 36167 ft | 466 kts | 320° |
| 2026-04-24 23:50 | 47.92653 | 4.67191 | 36157 ft | 466 kts | 320° |
| 2026-04-24 23:51 | 47.97570 | 4.60890 | 36174 ft | 466 kts | 319° |
| 2026-04-24 23:51 | 48.02495 | 4.54576 | 36176 ft | 466 kts | 319° |
| 2026-04-24 23:52 | 48.07413 | 4.48262 | 36176 ft | 466 kts | 319° |
| 2026-04-24 23:52 | 48.12325 | 4.41922 | 36173 ft | 467 kts | 319° |
| 2026-04-24 23:53 | 48.17237 | 4.35567 | 36175 ft | 467 kts | 319° |
| 2026-04-24 23:53 | 48.22159 | 4.29203 | 36171 ft | 467 kts | 319° |
| 2026-04-24 23:54 | 48.26937 | 4.22618 | 36186 ft | 466 kts | 309° |
| 2026-04-24 23:54 | 48.31082 | 4.15120 | 35922 ft | 465 kts | 309° |
| 2026-04-24 23:55 | 48.33120 | 4.11380 | 35415 ft | 460 kts | 308° |
| 2026-04-24 23:55 | 48.35130 | 4.07685 | 34609 ft | 454 kts | 308° |
| 2026-04-24 23:55 | 48.37118 | 4.04028 | 33726 ft | 449 kts | 308° |
| 2026-04-24 23:55 | 48.39088 | 4.00414 | 32818 ft | 444 kts | 308° |
| 2026-04-24 23:56 | 48.41043 | 3.96839 | 31949 ft | 440 kts | 308° |
| 2026-04-24 23:56 | 48.42974 | 3.93313 | 31107 ft | 435 kts | 308° |